X  Luk Metar data     EKYT Aalborg Airport
Temperatur
11°C Temperatur
7°C Duggpunkt
77% Fugtighed



Vind
6 m/s
13 MPT
21 km/t
11 Knob



240°
VSV
Nuværende forhold

Klart Klart
Tryk 1005.92 (hPa) - 29.7 (inHg)
Sigt 6.2 (mil) - 10 (km)
Lufthavn
Lufthavnskode EKYT

Lokation: Aalborg Airport
Afstand: 54 (km)

Metar:
EKYT 231120Z AUTO 24011KT 9999 NCD 11/07 Q1006

Tid: 23-10-2020 13:20 CEST